createdAt,value
2018-11-21T00:25:23.357Z,1.60
2018-11-21T00:28:04.489Z,1.40
2018-11-21T01:15:30.985Z,1.50
2018-11-21T01:18:11.737Z,1.50
2018-11-21T01:48:13.125Z,2.10
2018-11-21T03:36:35.263Z,1.50
2018-11-21T03:50:34.321Z,1.30
2018-11-21T03:58:59.517Z,1.50
2018-11-21T05:16:05.846Z,1.90
2018-11-21T05:34:11.707Z,1.80
2018-11-21T06:10:31.179Z,2.00
2018-11-21T06:15:47.085Z,1.90
2018-11-21T06:29:46.736Z,2.10
2018-11-21T07:09:10.360Z,1.80
2018-11-21T07:11:50.957Z,2.00
2018-11-21T07:38:42.745Z,2.00
2018-11-21T07:41:24.114Z,1.90
2018-11-21T07:44:04.952Z,1.80
2018-11-21T07:46:46.853Z,1.90
2018-11-21T07:49:29.698Z,1.90
2018-11-21T07:52:09.975Z,2.40
2018-11-21T07:54:51.407Z,2.00
2018-11-21T07:57:51.723Z,2.10
2018-11-21T08:00:33.218Z,2.20
2018-11-21T08:03:16.439Z,2.40
2018-11-21T08:06:03.224Z,2.30
2018-11-21T08:12:10.949Z,2.60
2018-11-21T08:15:19.395Z,2.50
2018-11-21T08:24:15.103Z,2.50
2018-11-21T08:27:15.234Z,2.50
2018-11-21T08:29:55.669Z,2.50
2018-11-21T08:32:36.124Z,2.40
2018-11-21T08:35:15.258Z,2.40
2018-11-21T08:38:03.036Z,2.30
2018-11-21T08:40:50.848Z,2.20
2018-11-21T08:43:38.930Z,2.10
2018-11-21T08:46:27.591Z,2.10
2018-11-21T08:49:15.374Z,2.20
2018-11-21T08:52:03.847Z,2.20
2018-11-21T08:54:51.637Z,3.20
2018-11-21T08:57:39.444Z,2.40
2018-11-21T09:00:27.594Z,2.30
2018-11-21T09:03:16.326Z,2.50
2018-11-21T09:06:04.529Z,2.40
2018-11-21T09:08:52.247Z,2.30
2018-11-21T09:11:40.304Z,2.30
2018-11-21T09:14:28.128Z,3.10
2018-11-21T09:20:23.175Z,2.20
2018-11-21T09:23:11.054Z,2.40
2018-11-21T09:25:58.855Z,2.50
2018-11-21T09:28:46.625Z,2.80
2018-11-21T09:31:34.790Z,2.40
2018-11-21T09:34:22.535Z,2.40
2018-11-21T09:37:10.827Z,2.60
2018-11-21T09:43:06.404Z,2.80
2018-11-21T09:45:55.118Z,2.70
2018-11-21T09:48:43.188Z,2.70
2018-11-21T09:51:31.615Z,2.60
2018-11-21T09:54:19.401Z,3.40
2018-11-21T10:00:00.669Z,2.70
2018-11-21T10:03:07.840Z,3.60
2018-11-21T10:05:56.927Z,2.70
2018-11-21T10:08:41.545Z,2.80
2018-11-21T10:11:22.795Z,2.70
2018-11-21T10:13:52.325Z,2.80
2018-11-21T10:16:40.442Z,2.60
2018-11-21T10:19:28.263Z,2.70
2018-11-21T10:22:35.494Z,3.50
2018-11-21T10:25:24.161Z,3.60
2018-11-21T10:28:11.987Z,3.00
2018-11-21T10:33:56.917Z,3.70
2018-11-21T10:36:46.825Z,2.60
2018-11-21T10:39:36.905Z,3.10
2018-11-21T10:42:24.713Z,2.70
2018-11-21T10:45:33.412Z,3.10
2018-11-21T10:48:22.046Z,3.80
2018-11-21T10:54:04.158Z,3.00
2018-11-21T11:02:58.967Z,3.00
2018-11-21T11:06:08.361Z,3.80
2018-11-21T11:09:15.284Z,3.10
2018-11-21T11:12:22.467Z,3.10
2018-11-21T11:15:31.605Z,3.10
2018-11-21T11:18:38.517Z,3.30
2018-11-21T11:21:45.410Z,3.30
2018-11-21T11:24:52.301Z,3.40
2018-11-21T11:27:59.219Z,3.30
2018-11-21T11:31:06.108Z,3.30
2018-11-21T11:34:13.006Z,3.30
2018-11-21T11:37:19.907Z,3.20
2018-11-21T11:40:28.079Z,3.20
2018-11-21T11:43:34.988Z,3.20
2018-11-21T11:46:41.882Z,3.20
2018-11-21T11:49:48.781Z,3.30
2018-11-21T11:52:55.649Z,4.00
2018-11-21T11:56:02.554Z,3.40
2018-11-21T11:59:09.447Z,3.40
2018-11-21T12:02:13.119Z,3.40
2018-11-21T12:05:18.047Z,3.40
2018-11-21T12:08:25.015Z,3.50
2018-11-21T12:11:31.908Z,3.40
2018-11-21T12:14:38.774Z,4.10
2018-11-21T12:17:45.661Z,3.60
2018-11-21T12:20:52.558Z,3.80
2018-11-21T12:23:59.459Z,3.60
2018-11-21T12:27:06.405Z,3.50
2018-11-21T12:30:13.310Z,3.90
2018-11-21T12:33:20.197Z,3.50
2018-11-21T12:36:27.144Z,3.50
2018-11-21T12:39:34.054Z,3.50
2018-11-21T12:42:40.942Z,3.50
2018-11-21T12:48:52.239Z,3.50
2018-11-21T12:52:00.284Z,3.40
2018-11-21T12:55:06.016Z,3.40
2018-11-21T12:58:12.913Z,3.50
2018-11-21T13:01:19.768Z,3.60
2018-11-21T13:04:15.522Z,3.50
2018-11-21T13:07:22.395Z,3.50
2018-11-21T13:10:21.870Z,3.60
2018-11-21T13:13:21.457Z,3.60
2018-11-21T13:16:21.554Z,3.70
2018-11-21T13:19:27.178Z,3.70
2018-11-21T13:22:26.722Z,3.80
2018-11-21T13:25:26.894Z,3.80
2018-11-21T13:28:26.364Z,3.80
2018-11-21T13:31:25.742Z,3.70
2018-11-21T13:34:25.744Z,3.60
2018-11-21T13:37:25.691Z,7.40
2018-11-21T13:40:28.428Z,3.60
2018-11-21T13:43:28.294Z,3.50
2018-11-21T13:46:28.160Z,3.60
2018-11-21T13:49:28.141Z,3.60
2018-11-21T13:52:28.297Z,3.60
2018-11-21T13:55:09.473Z,3.50
2018-11-21T14:00:48.859Z,3.70
2018-11-21T15:36:25.242Z,3.60
2018-11-21T16:00:11.210Z,4.10
2018-11-21T16:34:58.479Z,3.80
2018-11-21T17:04:42.327Z,4.00
2018-11-21T17:13:23.432Z,4.40
2018-11-21T17:31:11.511Z,4.20
2018-11-21T17:52:08.467Z,4.30
2018-11-21T18:13:09.281Z,4.10
2018-11-21T18:34:07.049Z,4.10
2018-11-21T18:48:50.808Z,3.30
2018-11-21T19:14:31.310Z,3.80
2018-11-21T19:20:24.565Z,3.50
2018-11-21T19:41:16.532Z,3.70
